sensor_id;sensor_type;location;lat;lon;timestamp;temperature;humidity
2543;DHT22;1116;51.502;7.414;2022-11-20T00:00:06;-0.90;34.20
2543;DHT22;1116;51.502;7.414;2022-11-20T00:02:39;-0.80;32.40
2543;DHT22;1116;51.502;7.414;2022-11-20T00:05:10;-0.80;31.60
2543;DHT22;1116;51.502;7.414;2022-11-20T00:07:41;-0.90;31.10
2543;DHT22;1116;51.502;7.414;2022-11-20T00:10:12;-0.50;31.60
2543;DHT22;1116;51.502;7.414;2022-11-20T00:12:48;-1.20;31.70
2543;DHT22;1116;51.502;7.414;2022-11-20T00:15:22;-0.90;32.50
2543;DHT22;1116;51.502;7.414;2022-11-20T00:17:53;-0.80;32.00
2543;DHT22;1116;51.502;7.414;2022-11-20T00:20:24;-0.80;31.00
2543;DHT22;1116;51.502;7.414;2022-11-20T00:22:55;-0.80;31.50
2543;DHT22;1116;51.502;7.414;2022-11-20T00:25:26;-0.70;32.30
2543;DHT22;1116;51.502;7.414;2022-11-20T00:27:59;-0.70;31.90
2543;DHT22;1116;51.502;7.414;2022-11-20T00:30:32;-0.40;31.70
2543;DHT22;1116;51.502;7.414;2022-11-20T00:33:03;-0.60;31.30
2543;DHT22;1116;51.502;7.414;2022-11-20T00:35:33;-0.60;31.50
2543;DHT22;1116;51.502;7.414;2022-11-20T00:38:04;-0.50;32.30
2543;DHT22;1116;51.502;7.414;2022-11-20T00:40:36;-0.40;32.00
2543;DHT22;1116;51.502;7.414;2022-11-20T00:43:09;0.10;33.00
2543;DHT22;1116;51.502;7.414;2022-11-20T00:45:40;-0.20;33.80
2543;DHT22;1116;51.502;7.414;2022-11-20T00:48:11;-0.20;34.10
2543;DHT22;1116;51.502;7.414;2022-11-20T00:50:42;0.00;33.50
2543;DHT22;1116;51.502;7.414;2022-11-20T00:53:14;0.00;35.00
2543;DHT22;1116;51.502;7.414;2022-11-20T00:55:53;0.10;33.80
2543;DHT22;1116;51.502;7.414;2022-11-20T00:58:30;-0.10;34.20
2543;DHT22;1116;51.502;7.414;2022-11-20T01:01:01;0.50;36.10
2543;DHT22;1116;51.502;7.414;2022-11-20T01:03:34;0.00;35.40
2543;DHT22;1116;51.502;7.414;2022-11-20T01:06:07;0.10;36.70
2543;DHT22;1116;51.502;7.414;2022-11-20T01:08:39;0.10;35.00
2543;DHT22;1116;51.502;7.414;2022-11-20T01:11:13;0.30;35.20
2543;DHT22;1116;51.502;7.414;2022-11-20T01:13:49;0.20;37.30
2543;DHT22;1116;51.502;7.414;2022-11-20T01:16:21;0.30;37.80
2543;DHT22;1116;51.502;7.414;2022-11-20T01:18:58;0.30;36.70
2543;DHT22;1116;51.502;7.414;2022-11-20T01:21:33;0.50;37.10
2543;DHT22;1116;51.502;7.414;2022-11-20T01:24:06;0.40;37.90
2543;DHT22;1116;51.502;7.414;2022-11-20T01:26:39;0.40;36.90
2543;DHT22;1116;51.502;7.414;2022-11-20T01:29:14;0.40;35.90
2543;DHT22;1116;51.502;7.414;2022-11-20T01:31:46;0.70;38.20
2543;DHT22;1116;51.502;7.414;2022-11-20T01:34:19;0.50;37.50
2543;DHT22;1116;51.502;7.414;2022-11-20T01:36:50;0.60;38.20
2543;DHT22;1116;51.502;7.414;2022-11-20T01:39:23;0.60;35.40
2543;DHT22;1116;51.502;7.414;2022-11-20T01:41:56;0.00;35.00
2543;DHT22;1116;51.502;7.414;2022-11-20T01:44:56;0.60;36.70
2543;DHT22;1116;51.502;7.414;2022-11-20T01:47:31;0.60;35.40
2543;DHT22;1116;51.502;7.414;2022-11-20T01:50:18;0.60;37.30
2543;DHT22;1116;51.502;7.414;2022-11-20T01:52:55;0.60;36.20
2543;DHT22;1116;51.502;7.414;2022-11-20T01:55:32;1.00;36.80
2543;DHT22;1116;51.502;7.414;2022-11-20T01:58:04;0.60;36.20
2543;DHT22;1116;51.502;7.414;2022-11-20T02:00:39;0.50;35.30
2543;DHT22;1116;51.502;7.414;2022-11-20T02:03:16;0.50;37.40
2543;DHT22;1116;51.502;7.414;2022-11-20T02:05:50;0.60;39.40
2543;DHT22;1116;51.502;7.414;2022-11-20T02:08:23;0.70;39.60
2543;DHT22;1116;51.502;7.414;2022-11-20T02:10:54;0.80;40.10
2543;DHT22;1116;51.502;7.414;2022-11-20T02:13:25;0.80;37.70
2543;DHT22;1116;51.502;7.414;2022-11-20T02:16:21;0.80;38.10
2543;DHT22;1116;51.502;7.414;2022-11-20T02:18:54;0.80;38.60
2543;DHT22;1116;51.502;7.414;2022-11-20T02:21:30;0.90;38.80
2543;DHT22;1116;51.502;7.414;2022-11-20T02:24:08;0.90;37.40
2543;DHT22;1116;51.502;7.414;2022-11-20T02:26:45;1.10;38.70
2543;DHT22;1116;51.502;7.414;2022-11-20T02:29:23;1.00;39.40
2543;DHT22;1116;51.502;7.414;2022-11-20T02:31:55;1.00;38.70
2543;DHT22;1116;51.502;7.414;2022-11-20T02:34:27;1.00;39.40
2543;DHT22;1116;51.502;7.414;2022-11-20T02:36:59;1.00;39.20
2543;DHT22;1116;51.502;7.414;2022-11-20T02:39:33;1.10;39.10
2543;DHT22;1116;51.502;7.414;2022-11-20T02:42:04;1.10;39.00
2543;DHT22;1116;51.502;7.414;2022-11-20T02:44:34;0.80;39.00
2543;DHT22;1116;51.502;7.414;2022-11-20T02:47:05;1.20;38.60
2543;DHT22;1116;51.502;7.414;2022-11-20T02:49:36;1.30;38.50
2543;DHT22;1116;51.502;7.414;2022-11-20T02:52:11;1.40;39.30
2543;DHT22;1116;51.502;7.414;2022-11-20T02:54:44;1.90;39.70
2543;DHT22;1116;51.502;7.414;2022-11-20T02:59:50;1.40;38.20
2543;DHT22;1116;51.502;7.414;2022-11-20T03:02:21;1.30;39.20
2543;DHT22;1116;51.502;7.414;2022-11-20T03:05:00;1.40;39.80
2543;DHT22;1116;51.502;7.414;2022-11-20T03:07:31;1.40;39.80
2543;DHT22;1116;51.502;7.414;2022-11-20T03:10:06;1.50;40.20
2543;DHT22;1116;51.502;7.414;2022-11-20T03:12:37;1.50;39.00
2543;DHT22;1116;51.502;7.414;2022-11-20T03:15:09;1.40;39.80
2543;DHT22;1116;51.502;7.414;2022-11-20T03:17:39;1.20;41.10
2543;DHT22;1116;51.502;7.414;2022-11-20T03:20:11;1.50;39.80
2543;DHT22;1116;51.502;7.414;2022-11-20T03:22:42;1.60;40.70
2543;DHT22;1116;51.502;7.414;2022-11-20T03:25:17;1.60;39.90
2543;DHT22;1116;51.502;7.414;2022-11-20T03:27:48;1.70;40.50
2543;DHT22;1116;51.502;7.414;2022-11-20T03:30:20;1.70;41.20
2543;DHT22;1116;51.502;7.414;2022-11-20T03:32:59;1.70;40.60
2543;DHT22;1116;51.502;7.414;2022-11-20T03:35:29;1.80;40.90
2543;DHT22;1116;51.502;7.414;2022-11-20T03:38:00;1.80;40.50
2543;DHT22;1116;51.502;7.414;2022-11-20T03:40:34;1.90;40.50
2543;DHT22;1116;51.502;7.414;2022-11-20T03:43:05;1.90;40.50
2543;DHT22;1116;51.502;7.414;2022-11-20T03:45:36;2.00;40.80
2543;DHT22;1116;51.502;7.414;2022-11-20T03:48:06;2.00;40.30
2543;DHT22;1116;51.502;7.414;2022-11-20T03:50:37;2.00;40.10
2543;DHT22;1116;51.502;7.414;2022-11-20T03:53:11;2.30;39.70
2543;DHT22;1116;51.502;7.414;2022-11-20T03:55:50;2.00;40.00
2543;DHT22;1116;51.502;7.414;2022-11-20T03:58:20;2.00;40.80
2543;DHT22;1116;51.502;7.414;2022-11-20T04:00:53;2.10;41.00
2543;DHT22;1116;51.502;7.414;2022-11-20T04:03:24;2.10;40.70
2543;DHT22;1116;51.502;7.414;2022-11-20T04:05:55;2.10;40.50
2543;DHT22;1116;51.502;7.414;2022-11-20T04:08:31;2.10;40.20
2543;DHT22;1116;51.502;7.414;2022-11-20T04:11:12;2.10;41.40
2543;DHT22;1116;51.502;7.414;2022-11-20T04:13:46;2.10;40.60
2543;DHT22;1116;51.502;7.414;2022-11-20T04:16:18;2.10;41.00
2543;DHT22;1116;51.502;7.414;2022-11-20T04:18:53;2.10;41.30
2543;DHT22;1116;51.502;7.414;2022-11-20T04:21:26;2.10;41.70
2543;DHT22;1116;51.502;7.414;2022-11-20T04:23:58;2.00;43.40
2543;DHT22;1116;51.502;7.414;2022-11-20T04:26:31;2.20;43.30
2543;DHT22;1116;51.502;7.414;2022-11-20T04:29:04;2.20;41.80
2543;DHT22;1116;51.502;7.414;2022-11-20T04:31:35;2.20;42.10
2543;DHT22;1116;51.502;7.414;2022-11-20T04:34:07;2.20;44.40
2543;DHT22;1116;51.502;7.414;2022-11-20T04:36:38;2.30;43.50
2543;DHT22;1116;51.502;7.414;2022-11-20T04:39:14;2.30;43.00
2543;DHT22;1116;51.502;7.414;2022-11-20T04:41:51;2.30;42.20
2543;DHT22;1116;51.502;7.414;2022-11-20T04:44:42;2.30;43.40
2543;DHT22;1116;51.502;7.414;2022-11-20T04:47:15;2.40;43.50
2543;DHT22;1116;51.502;7.414;2022-11-20T04:49:46;2.40;44.20
2543;DHT22;1116;51.502;7.414;2022-11-20T04:52:17;2.40;43.30
2543;DHT22;1116;51.502;7.414;2022-11-20T04:54:48;2.40;42.70
2543;DHT22;1116;51.502;7.414;2022-11-20T04:57:23;2.40;42.10
2543;DHT22;1116;51.502;7.414;2022-11-20T04:59:54;2.50;43.60
2543;DHT22;1116;51.502;7.414;2022-11-20T05:02:25;2.50;44.00
2543;DHT22;1116;51.502;7.414;2022-11-20T05:04:55;2.50;43.50
2543;DHT22;1116;51.502;7.414;2022-11-20T05:07:26;2.40;42.60
2543;DHT22;1116;51.502;7.414;2022-11-20T05:09:57;2.40;43.50
2543;DHT22;1116;51.502;7.414;2022-11-20T05:12:31;2.40;40.70
2543;DHT22;1116;51.502;7.414;2022-11-20T05:15:02;2.40;43.20
2543;DHT22;1116;51.502;7.414;2022-11-20T05:17:34;2.40;42.20
2543;DHT22;1116;51.502;7.414;2022-11-20T05:20:06;2.40;40.20
2543;DHT22;1116;51.502;7.414;2022-11-20T05:22:37;2.40;41.00
2543;DHT22;1116;51.502;7.414;2022-11-20T05:25:10;2.40;41.70
2543;DHT22;1116;51.502;7.414;2022-11-20T05:27:43;2.50;42.30
2543;DHT22;1116;51.502;7.414;2022-11-20T05:30:16;2.50;42.90
2543;DHT22;1116;51.502;7.414;2022-11-20T05:32:47;2.50;42.10
2543;DHT22;1116;51.502;7.414;2022-11-20T05:35:18;2.50;41.60
2543;DHT22;1116;51.502;7.414;2022-11-20T05:37:49;2.50;41.90
2543;DHT22;1116;51.502;7.414;2022-11-20T05:40:20;2.50;42.30
2543;DHT22;1116;51.502;7.414;2022-11-20T05:42:53;2.50;41.90
2543;DHT22;1116;51.502;7.414;2022-11-20T05:45:24;2.50;41.70
2543;DHT22;1116;51.502;7.414;2022-11-20T05:47:58;2.50;42.30
2543;DHT22;1116;51.502;7.414;2022-11-20T05:50:30;2.50;42.10
2543;DHT22;1116;51.502;7.414;2022-11-20T05:53:01;2.20;41.20
2543;DHT22;1116;51.502;7.414;2022-11-20T05:55:31;2.40;41.50
2543;DHT22;1116;51.502;7.414;2022-11-20T05:58:05;2.40;42.10
2543;DHT22;1116;51.502;7.414;2022-11-20T06:00:36;2.30;41.90
2543;DHT22;1116;51.502;7.414;2022-11-20T06:03:06;2.30;41.90
2543;DHT22;1116;51.502;7.414;2022-11-20T06:05:37;2.40;42.00
2543;DHT22;1116;51.502;7.414;2022-11-20T06:08:08;2.30;41.90
2543;DHT22;1116;51.502;7.414;2022-11-20T06:10:39;2.30;42.40
2543;DHT22;1116;51.502;7.414;2022-11-20T06:13:12;2.30;42.60
2543;DHT22;1116;51.502;7.414;2022-11-20T06:15:48;2.20;41.40
2543;DHT22;1116;51.502;7.414;2022-11-20T06:18:19;2.10;42.70
2543;DHT22;1116;51.502;7.414;2022-11-20T06:20:59;2.00;41.60
2543;DHT22;1116;51.502;7.414;2022-11-20T06:23:30;1.90;41.70
2543;DHT22;1116;51.502;7.414;2022-11-20T06:26:02;1.90;42.80
2543;DHT22;1116;51.502;7.414;2022-11-20T06:28:36;1.80;41.50
2543;DHT22;1116;51.502;7.414;2022-11-20T06:31:11;1.80;43.10
2543;DHT22;1116;51.502;7.414;2022-11-20T06:33:42;1.80;43.70
2543;DHT22;1116;51.502;7.414;2022-11-20T06:36:15;1.70;43.40
2543;DHT22;1116;51.502;7.414;2022-11-20T06:38:49;1.70;42.90
2543;DHT22;1116;51.502;7.414;2022-11-20T06:41:22;1.60;42.70
2543;DHT22;1116;51.502;7.414;2022-11-20T06:43:59;1.60;43.90
2543;DHT22;1116;51.502;7.414;2022-11-20T06:46:29;1.20;42.50
2543;DHT22;1116;51.502;7.414;2022-11-20T06:49:00;1.50;43.20
2543;DHT22;1116;51.502;7.414;2022-11-20T06:51:33;1.40;42.80
2543;DHT22;1116;51.502;7.414;2022-11-20T06:54:05;1.80;42.70
2543;DHT22;1116;51.502;7.414;2022-11-20T06:56:36;1.80;43.30
2543;DHT22;1116;51.502;7.414;2022-11-20T06:59:10;1.30;41.80
2543;DHT22;1116;51.502;7.414;2022-11-20T07:01:41;1.70;41.90
2543;DHT22;1116;51.502;7.414;2022-11-20T07:04:11;1.20;42.10
2543;DHT22;1116;51.502;7.414;2022-11-20T07:06:44;1.20;42.50
2543;DHT22;1116;51.502;7.414;2022-11-20T07:09:15;1.20;43.30
2543;DHT22;1116;51.502;7.414;2022-11-20T07:11:46;1.20;43.80
2543;DHT22;1116;51.502;7.414;2022-11-20T07:14:19;1.10;42.50
2543;DHT22;1116;51.502;7.414;2022-11-20T07:16:50;1.10;41.90
2543;DHT22;1116;51.502;7.414;2022-11-20T07:19:21;1.10;42.30
2543;DHT22;1116;51.502;7.414;2022-11-20T07:21:54;1.00;42.00
2543;DHT22;1116;51.502;7.414;2022-11-20T07:24:25;1.00;42.40
2543;DHT22;1116;51.502;7.414;2022-11-20T07:26:56;1.00;41.80
2543;DHT22;1116;51.502;7.414;2022-11-20T07:29:29;1.00;41.80
2543;DHT22;1116;51.502;7.414;2022-11-20T07:32:00;0.90;42.60
2543;DHT22;1116;51.502;7.414;2022-11-20T07:34:31;1.00;43.40
2543;DHT22;1116;51.502;7.414;2022-11-20T07:37:04;1.00;41.70
2543;DHT22;1116;51.502;7.414;2022-11-20T07:39:40;1.00;43.40
2543;DHT22;1116;51.502;7.414;2022-11-20T07:42:16;1.00;42.50
2543;DHT22;1116;51.502;7.414;2022-11-20T07:44:50;1.00;42.50
2543;DHT22;1116;51.502;7.414;2022-11-20T07:47:23;1.00;43.00
2543;DHT22;1116;51.502;7.414;2022-11-20T07:49:54;0.70;41.90
2543;DHT22;1116;51.502;7.414;2022-11-20T07:52:24;1.10;42.90
2543;DHT22;1116;51.502;7.414;2022-11-20T07:54:58;1.20;43.00
2543;DHT22;1116;51.502;7.414;2022-11-20T07:57:29;1.30;43.00
2543;DHT22;1116;51.502;7.414;2022-11-20T08:00:03;1.30;43.20
2543;DHT22;1116;51.502;7.414;2022-11-20T08:02:37;1.30;42.80
2543;DHT22;1116;51.502;7.414;2022-11-20T08:05:08;1.30;43.70
2543;DHT22;1116;51.502;7.414;2022-11-20T08:07:41;1.00;43.40
2543;DHT22;1116;51.502;7.414;2022-11-20T08:10:14;1.50;43.90
2543;DHT22;1116;51.502;7.414;2022-11-20T08:12:46;1.50;43.50
2543;DHT22;1116;51.502;7.414;2022-11-20T08:15:32;1.50;44.20
2543;DHT22;1116;51.502;7.414;2022-11-20T08:18:05;1.50;44.00
2543;DHT22;1116;51.502;7.414;2022-11-20T08:20:56;1.60;45.00
2543;DHT22;1116;51.502;7.414;2022-11-20T08:23:27;1.60;44.40
2543;DHT22;1116;51.502;7.414;2022-11-20T08:25:58;1.70;44.70
2543;DHT22;1116;51.502;7.414;2022-11-20T08:28:29;1.80;44.00
2543;DHT22;1116;51.502;7.414;2022-11-20T08:31:05;1.80;43.60
2543;DHT22;1116;51.502;7.414;2022-11-20T08:33:37;1.90;43.90
2543;DHT22;1116;51.502;7.414;2022-11-20T08:36:09;1.90;44.10
2543;DHT22;1116;51.502;7.414;2022-11-20T08:38:46;2.00;44.40
2543;DHT22;1116;51.502;7.414;2022-11-20T08:41:17;2.00;46.60
2543;DHT22;1116;51.502;7.414;2022-11-20T08:43:58;2.10;45.70
2543;DHT22;1116;51.502;7.414;2022-11-20T08:46:35;2.20;45.80
2543;DHT22;1116;51.502;7.414;2022-11-20T08:49:10;2.40;45.40
2543;DHT22;1116;51.502;7.414;2022-11-20T08:54:28;2.60;45.30
2543;DHT22;1116;51.502;7.414;2022-11-20T08:56:59;3.10;45.30
2543;DHT22;1116;51.502;7.414;2022-11-20T08:59:30;2.70;43.40
2543;DHT22;1116;51.502;7.414;2022-11-20T09:02:24;2.80;42.10
2543;DHT22;1116;51.502;7.414;2022-11-20T09:04:56;2.80;40.90
2543;DHT22;1116;51.502;7.414;2022-11-20T09:07:29;2.80;41.50
2543;DHT22;1116;51.502;7.414;2022-11-20T09:10:11;2.80;41.60
2543;DHT22;1116;51.502;7.414;2022-11-20T09:12:52;2.80;42.10
2543;DHT22;1116;51.502;7.414;2022-11-20T09:15:24;2.70;41.50
2543;DHT22;1116;51.502;7.414;2022-11-20T09:17:58;2.80;43.00
2543;DHT22;1116;51.502;7.414;2022-11-20T09:20:30;2.80;42.60
2543;DHT22;1116;51.502;7.414;2022-11-20T09:23:03;2.80;41.30
2543;DHT22;1116;51.502;7.414;2022-11-20T09:25:34;2.90;41.60
2543;DHT22;1116;51.502;7.414;2022-11-20T09:28:07;3.00;40.50
2543;DHT22;1116;51.502;7.414;2022-11-20T09:30:37;3.00;36.40
2543;DHT22;1116;51.502;7.414;2022-11-20T09:33:11;3.00;36.60
2543;DHT22;1116;51.502;7.414;2022-11-20T09:35:43;3.10;32.00
2543;DHT22;1116;51.502;7.414;2022-11-20T09:38:14;3.10;33.80
2543;DHT22;1116;51.502;7.414;2022-11-20T09:40:49;3.20;33.60
2543;DHT22;1116;51.502;7.414;2022-11-20T09:43:32;3.20;29.30
2543;DHT22;1116;51.502;7.414;2022-11-20T09:46:16;3.20;27.80
2543;DHT22;1116;51.502;7.414;2022-11-20T09:49:02;3.20;29.20
2543;DHT22;1116;51.502;7.414;2022-11-20T09:51:44;3.30;28.10
2543;DHT22;1116;51.502;7.414;2022-11-20T09:54:18;3.30;27.90
2543;DHT22;1116;51.502;7.414;2022-11-20T09:56:51;3.40;27.90
2543;DHT22;1116;51.502;7.414;2022-11-20T09:59:31;3.50;28.50
2543;DHT22;1116;51.502;7.414;2022-11-20T10:02:15;3.50;26.90
2543;DHT22;1116;51.502;7.414;2022-11-20T10:04:55;3.60;25.90
2543;DHT22;1116;51.502;7.414;2022-11-20T10:07:31;3.50;25.80
2543;DHT22;1116;51.502;7.414;2022-11-20T10:10:13;3.80;26.40
2543;DHT22;1116;51.502;7.414;2022-11-20T10:12:57;3.70;26.20
2543;DHT22;1116;51.502;7.414;2022-11-20T10:15:42;3.70;25.80
2543;DHT22;1116;51.502;7.414;2022-11-20T10:18:23;3.70;23.60
2543;DHT22;1116;51.502;7.414;2022-11-20T10:21:09;3.80;24.80
2543;DHT22;1116;51.502;7.414;2022-11-20T10:23:57;3.80;26.10
2543;DHT22;1116;51.502;7.414;2022-11-20T10:26:42;4.00;25.10
2543;DHT22;1116;51.502;7.414;2022-11-20T10:29:16;4.20;24.40
2543;DHT22;1116;51.502;7.414;2022-11-20T10:31:51;4.30;25.90
2543;DHT22;1116;51.502;7.414;2022-11-20T10:34:24;4.30;24.60
2543;DHT22;1116;51.502;7.414;2022-11-20T10:37:05;4.40;25.00
2543;DHT22;1116;51.502;7.414;2022-11-20T10:39:42;4.40;24.30
2543;DHT22;1116;51.502;7.414;2022-11-20T10:42:24;4.40;24.00
2543;DHT22;1116;51.502;7.414;2022-11-20T10:45:04;4.50;25.10
2543;DHT22;1116;51.502;7.414;2022-11-20T10:47:40;5.10;25.10
2543;DHT22;1116;51.502;7.414;2022-11-20T10:50:16;4.70;22.60
2543;DHT22;1116;51.502;7.414;2022-11-20T10:52:59;4.60;22.10
2543;DHT22;1116;51.502;7.414;2022-11-20T10:55:42;4.70;22.30
2543;DHT22;1116;51.502;7.414;2022-11-20T10:58:20;4.70;22.50
2543;DHT22;1116;51.502;7.414;2022-11-20T11:01:03;5.10;23.80
2543;DHT22;1116;51.502;7.414;2022-11-20T11:03:35;4.70;22.10
2543;DHT22;1116;51.502;7.414;2022-11-20T11:06:12;4.90;22.10
2543;DHT22;1116;51.502;7.414;2022-11-20T11:08:49;4.90;20.60
2543;DHT22;1116;51.502;7.414;2022-11-20T11:11:24;4.80;21.00
2543;DHT22;1116;51.502;7.414;2022-11-20T11:14:04;5.00;21.70
2543;DHT22;1116;51.502;7.414;2022-11-20T11:16:35;5.10;22.40
2543;DHT22;1116;51.502;7.414;2022-11-20T11:19:15;5.00;20.70
2543;DHT22;1116;51.502;7.414;2022-11-20T11:21:47;5.00;20.70
2543;DHT22;1116;51.502;7.414;2022-11-20T11:24:27;5.00;20.70
2543;DHT22;1116;51.502;7.414;2022-11-20T11:27:13;5.00;20.20
2543;DHT22;1116;51.502;7.414;2022-11-20T11:29:46;4.60;20.40
2543;DHT22;1116;51.502;7.414;2022-11-20T11:32:24;5.10;20.80
2543;DHT22;1116;51.502;7.414;2022-11-20T11:35:02;5.10;20.70
2543;DHT22;1116;51.502;7.414;2022-11-20T11:37:35;5.20;20.80
2543;DHT22;1116;51.502;7.414;2022-11-20T11:40:11;5.20;20.90
2543;DHT22;1116;51.502;7.414;2022-11-20T11:42:54;5.20;20.80
2543;DHT22;1116;51.502;7.414;2022-11-20T11:45:27;5.20;20.80
2543;DHT22;1116;51.502;7.414;2022-11-20T11:47:58;5.20;20.80
2543;DHT22;1116;51.502;7.414;2022-11-20T11:50:30;5.20;18.50
2543;DHT22;1116;51.502;7.414;2022-11-20T11:53:09;5.20;19.20
2543;DHT22;1116;51.502;7.414;2022-11-20T11:55:47;5.20;19.60
2543;DHT22;1116;51.502;7.414;2022-11-20T11:58:34;5.50;19.50
2543;DHT22;1116;51.502;7.414;2022-11-20T12:01:14;5.20;19.10
2543;DHT22;1116;51.502;7.414;2022-11-20T12:03:54;5.10;17.90
2543;DHT22;1116;51.502;7.414;2022-11-20T12:06:26;5.10;18.90
2543;DHT22;1116;51.502;7.414;2022-11-20T12:09:03;5.10;17.70
2543;DHT22;1116;51.502;7.414;2022-11-20T12:11:41;5.10;17.90
2543;DHT22;1116;51.502;7.414;2022-11-20T12:14:16;5.10;17.30
2543;DHT22;1116;51.502;7.414;2022-11-20T12:16:52;5.10;18.10
2543;DHT22;1116;51.502;7.414;2022-11-20T12:19:26;5.20;17.50
2543;DHT22;1116;51.502;7.414;2022-11-20T12:22:07;5.30;18.10
2543;DHT22;1116;51.502;7.414;2022-11-20T12:24:51;5.30;17.70
2543;DHT22;1116;51.502;7.414;2022-11-20T12:27:58;5.40;16.70
2543;DHT22;1116;51.502;7.414;2022-11-20T12:30:33;5.30;15.20
2543;DHT22;1116;51.502;7.414;2022-11-20T12:33:34;5.30;16.40
2543;DHT22;1116;51.502;7.414;2022-11-20T12:36:19;5.30;15.00
2543;DHT22;1116;51.502;7.414;2022-11-20T12:39:18;5.40;16.00
2543;DHT22;1116;51.502;7.414;2022-11-20T12:45:14;5.30;15.50
2543;DHT22;1116;51.502;7.414;2022-11-20T12:48:17;5.40;16.20
2543;DHT22;1116;51.502;7.414;2022-11-20T12:51:00;5.50;16.30
2543;DHT22;1116;51.502;7.414;2022-11-20T12:53:51;5.50;15.20
2543;DHT22;1116;51.502;7.414;2022-11-20T12:56:37;5.50;14.50
2543;DHT22;1116;51.502;7.414;2022-11-20T12:59:30;5.40;15.00
2543;DHT22;1116;51.502;7.414;2022-11-20T13:02:17;5.30;16.60
2543;DHT22;1116;51.502;7.414;2022-11-20T13:05:11;5.30;14.40
2543;DHT22;1116;51.502;7.414;2022-11-20T13:07:47;5.30;15.70
2543;DHT22;1116;51.502;7.414;2022-11-20T13:10:23;5.20;16.00
2543;DHT22;1116;51.502;7.414;2022-11-20T13:13:03;5.30;16.80
2543;DHT22;1116;51.502;7.414;2022-11-20T13:15:45;5.30;16.10
2543;DHT22;1116;51.502;7.414;2022-11-20T13:18:21;5.20;16.20
2543;DHT22;1116;51.502;7.414;2022-11-20T13:20:54;5.20;17.40
2543;DHT22;1116;51.502;7.414;2022-11-20T13:23:28;5.00;16.50
2543;DHT22;1116;51.502;7.414;2022-11-20T13:26:13;5.20;16.80
2543;DHT22;1116;51.502;7.414;2022-11-20T13:28:46;5.10;17.40
2543;DHT22;1116;51.502;7.414;2022-11-20T13:31:30;5.00;17.70
2543;DHT22;1116;51.502;7.414;2022-11-20T13:34:06;5.00;16.80
2543;DHT22;1116;51.502;7.414;2022-11-20T13:36:49;5.00;17.20
2543;DHT22;1116;51.502;7.414;2022-11-20T13:39:26;4.90;16.90
2543;DHT22;1116;51.502;7.414;2022-11-20T13:41:59;5.00;17.90
2543;DHT22;1116;51.502;7.414;2022-11-20T13:44:34;4.90;16.50
2543;DHT22;1116;51.502;7.414;2022-11-20T13:47:20;4.90;17.30
2543;DHT22;1116;51.502;7.414;2022-11-20T13:49:55;4.80;17.90
2543;DHT22;1116;51.502;7.414;2022-11-20T13:52:39;4.80;17.30
2543;DHT22;1116;51.502;7.414;2022-11-20T13:55:18;4.90;17.40
2543;DHT22;1116;51.502;7.414;2022-11-20T13:58:22;5.00;17.10
2543;DHT22;1116;51.502;7.414;2022-11-20T14:01:00;4.60;17.40
2543;DHT22;1116;51.502;7.414;2022-11-20T14:03:33;4.90;16.90
2543;DHT22;1116;51.502;7.414;2022-11-20T14:06:29;4.90;17.30
2543;DHT22;1116;51.502;7.414;2022-11-20T14:09:02;4.80;17.90
2543;DHT22;1116;51.502;7.414;2022-11-20T14:11:33;4.80;17.90
2543;DHT22;1116;51.502;7.414;2022-11-20T14:14:14;4.90;18.00
2543;DHT22;1116;51.502;7.414;2022-11-20T14:16:47;5.00;18.00
2543;DHT22;1116;51.502;7.414;2022-11-20T14:19:28;5.10;18.00
2543;DHT22;1116;51.502;7.414;2022-11-20T14:22:15;5.00;19.00
2543;DHT22;1116;51.502;7.414;2022-11-20T14:24:48;5.00;18.80
2543;DHT22;1116;51.502;7.414;2022-11-20T14:27:21;5.00;18.20
2543;DHT22;1116;51.502;7.414;2022-11-20T14:29:52;5.00;19.10
2543;DHT22;1116;51.502;7.414;2022-11-20T14:32:28;5.10;19.40
2543;DHT22;1116;51.502;7.414;2022-11-20T14:35:13;5.10;19.90
2543;DHT22;1116;51.502;7.414;2022-11-20T14:37:49;5.10;18.80
2543;DHT22;1116;51.502;7.414;2022-11-20T14:40:31;5.10;19.60
2543;DHT22;1116;51.502;7.414;2022-11-20T14:43:16;5.20;19.20
2543;DHT22;1116;51.502;7.414;2022-11-20T14:45:55;5.10;19.20
2543;DHT22;1116;51.502;7.414;2022-11-20T14:48:30;5.10;20.30
2543;DHT22;1116;51.502;7.414;2022-11-20T14:51:02;5.10;20.80
2543;DHT22;1116;51.502;7.414;2022-11-20T14:53:35;5.10;20.80
2543;DHT22;1116;51.502;7.414;2022-11-20T14:56:10;5.00;20.70
2543;DHT22;1116;51.502;7.414;2022-11-20T14:58:41;5.00;20.70
2543;DHT22;1116;51.502;7.414;2022-11-20T15:01:12;4.90;20.60
2543;DHT22;1116;51.502;7.414;2022-11-20T15:03:59;5.00;20.70
2543;DHT22;1116;51.502;7.414;2022-11-20T15:06:30;5.00;20.70
2543;DHT22;1116;51.502;7.414;2022-11-20T15:09:14;5.00;22.10
2543;DHT22;1116;51.502;7.414;2022-11-20T15:11:54;5.10;22.50
2543;DHT22;1116;51.502;7.414;2022-11-20T15:14:31;5.10;21.10
2543;DHT22;1116;51.502;7.414;2022-11-20T15:17:02;5.10;23.20
2543;DHT22;1116;51.502;7.414;2022-11-20T15:19:34;5.00;23.40
2543;DHT22;1116;51.502;7.414;2022-11-20T15:22:09;5.00;25.10
2543;DHT22;1116;51.502;7.414;2022-11-20T15:24:47;5.00;24.90
2543;DHT22;1116;51.502;7.414;2022-11-20T15:27:17;4.90;26.40
2543;DHT22;1116;51.502;7.414;2022-11-20T15:29:49;5.30;26.80
2543;DHT22;1116;51.502;7.414;2022-11-20T15:32:24;4.80;27.90
2543;DHT22;1116;51.502;7.414;2022-11-20T15:34:57;4.70;28.80
2543;DHT22;1116;51.502;7.414;2022-11-20T15:37:30;4.70;28.90
2543;DHT22;1116;51.502;7.414;2022-11-20T15:40:07;4.80;29.70
2543;DHT22;1116;51.502;7.414;2022-11-20T15:42:38;4.80;30.00
2543;DHT22;1116;51.502;7.414;2022-11-20T15:45:33;4.90;30.90
2543;DHT22;1116;51.502;7.414;2022-11-20T15:48:10;4.90;30.00
2543;DHT22;1116;51.502;7.414;2022-11-20T15:50:48;4.90;30.50
2543;DHT22;1116;51.502;7.414;2022-11-20T15:53:20;4.90;32.10
2543;DHT22;1116;51.502;7.414;2022-11-20T15:55:53;4.90;33.10
2543;DHT22;1116;51.502;7.414;2022-11-20T15:58:25;4.80;34.00
2543;DHT22;1116;51.502;7.414;2022-11-20T16:00:59;4.90;36.30
2543;DHT22;1116;51.502;7.414;2022-11-20T16:03:30;4.90;36.50
2543;DHT22;1116;51.502;7.414;2022-11-20T16:06:01;4.90;35.90
2543;DHT22;1116;51.502;7.414;2022-11-20T16:08:32;5.00;37.10
2543;DHT22;1116;51.502;7.414;2022-11-20T16:11:05;4.90;37.20
2543;DHT22;1116;51.502;7.414;2022-11-20T16:13:39;4.90;40.50
2543;DHT22;1116;51.502;7.414;2022-11-20T16:16:23;4.90;41.40
2543;DHT22;1116;51.502;7.414;2022-11-20T16:18:56;5.00;41.90
2543;DHT22;1116;51.502;7.414;2022-11-20T16:21:28;5.00;42.00
2543;DHT22;1116;51.502;7.414;2022-11-20T16:24:00;5.00;43.70
2543;DHT22;1116;51.502;7.414;2022-11-20T16:26:34;4.90;43.60
2543;DHT22;1116;51.502;7.414;2022-11-20T16:29:06;4.70;46.60
2543;DHT22;1116;51.502;7.414;2022-11-20T16:31:37;4.80;47.40
2543;DHT22;1116;51.502;7.414;2022-11-20T16:34:08;4.60;49.10
2543;DHT22;1116;51.502;7.414;2022-11-20T16:36:43;4.60;55.90
2543;DHT22;1116;51.502;7.414;2022-11-20T16:39:14;4.60;65.00
2543;DHT22;1116;51.502;7.414;2022-11-20T16:41:53;5.10;90.00
2543;DHT22;1116;51.502;7.414;2022-11-20T16:44:24;4.80;92.20
2543;DHT22;1116;51.502;7.414;2022-11-20T16:46:55;4.90;93.30
2543;DHT22;1116;51.502;7.414;2022-11-20T16:49:27;4.90;92.60
2543;DHT22;1116;51.502;7.414;2022-11-20T16:52:00;4.90;92.90
2543;DHT22;1116;51.502;7.414;2022-11-20T16:54:31;4.90;93.20
2543;DHT22;1116;51.502;7.414;2022-11-20T16:57:05;5.00;93.00
2543;DHT22;1116;51.502;7.414;2022-11-20T16:59:36;5.00;94.40
2543;DHT22;1116;51.502;7.414;2022-11-20T17:02:08;5.00;97.90
2543;DHT22;1116;51.502;7.414;2022-11-20T17:04:39;4.90;99.90
2543;DHT22;1116;51.502;7.414;2022-11-20T17:07:11;4.90;99.90
2543;DHT22;1116;51.502;7.414;2022-11-20T17:09:42;4.90;99.90
2543;DHT22;1116;51.502;7.414;2022-11-20T17:12:16;5.00;99.90
2543;DHT22;1116;51.502;7.414;2022-11-20T17:14:46;5.10;99.90
2543;DHT22;1116;51.502;7.414;2022-11-20T17:17:18;5.10;99.90